Time;durP1;ratioP1;P1;durP2;ratioP2;P2;SDS_P1;SDS_P2;PMS_P1;PMS_P2;Temp;Humidity;BMP_temperature;BMP_pressure;BME280_temperature;BME280_humidity;BME280_pressure;Samples;Min_cycle;Max_cycle;Signal;HPM_P1;HPM_P2
2023/06/06 00:02:11;;;;;;;5.40;2.90;;;;;;;;;;5070662;28;20485;-80
2023/06/06 00:04:40;;;;;;;4.97;3.03;;;;;;;;;;5072358;28;20470;-80
2023/06/06 00:07:09;;;;;;;3.70;2.20;;;;;;;;;;5070462;28;20464;-81
2023/06/06 00:09:36;;;;;;;4.70;2.13;;;;;;;;;;5073071;28;20499;-80
2023/06/06 00:12:05;;;;;;;8.20;3.23;;;;;;;;;;5071944;28;20457;-80
2023/06/06 00:14:34;;;;;;;5.97;2.97;;;;;;;;;;5069902;28;20506;-78
2023/06/06 00:17:10;;;;;;;4.60;2.47;;;;;;;;;;5075321;28;20450;-79
2023/06/06 00:19:42;;;;;;;3.73;2.30;;;;;;;;;;5074466;28;20513;-79
2023/06/06 00:22:15;;;;;;;5.40;2.97;;;;;;;;;;5074146;28;20468;-79
2023/06/06 00:24:48;;;;;;;4.40;2.27;;;;;;;;;;5071740;28;20444;-80
2023/06/06 00:27:15;;;;;;;6.17;2.30;;;;;;;;;;5071535;28;20472;-81
2023/06/06 00:29:42;;;;;;;3.57;1.80;;;;;;;;;;5071795;28;20460;-80
2023/06/06 00:32:10;;;;;;;5.07;2.50;;;;;;;;;;5074339;28;20515;-79
2023/06/06 00:34:37;;;;;;;5.53;2.50;;;;;;;;;;5072317;28;20486;-78
2023/06/06 00:37:07;;;;;;;5.57;2.60;;;;;;;;;;5069683;28;20488;-80
2023/06/06 00:39:37;;;;;;;6.50;2.60;;;;;;;;;;5068922;28;20493;-80
2023/06/06 00:42:05;;;;;;;5.10;3.00;;;;;;;;;;5068551;28;20492;-80
2023/06/06 00:44:32;;;;;;;5.70;2.53;;;;;;;;;;5069039;28;20453;-80
2023/06/06 00:46:59;;;;;;;7.13;2.53;;;;;;;;;;5067399;28;20591;-80
2023/06/06 00:49:27;;;;;;;4.90;2.30;;;;;;;;;;5065800;28;20454;-80
2023/06/06 00:51:55;;;;;;;6.10;3.17;;;;;;;;;;5064744;28;20497;-80
2023/06/06 00:54:24;;;;;;;8.47;2.37;;;;;;;;;;5065694;28;20984;-80
2023/06/06 00:56:53;;;;;;;7.17;2.40;;;;;;;;;;5064862;28;20454;-80
2023/06/06 00:59:22;;;;;;;4.50;2.27;;;;;;;;;;5066328;28;20473;-80
2023/06/06 01:02:03;;;;;;;11.13;3.20;;;;;;;;;;5065837;28;20473;-81
2023/06/06 01:04:31;;;;;;;3.03;1.93;;;;;;;;;;5065705;28;20465;-80
2023/06/06 01:06:59;;;;;;;3.93;2.20;;;;;;;;;;5065855;28;20927;-80
2023/06/06 01:09:29;;;;;;;6.57;2.20;;;;;;;;;;5068044;28;20501;-80
2023/06/06 01:12:08;;;;;;;5.47;2.07;;;;;;;;;;5068028;28;20485;-80
2023/06/06 01:14:39;;;;;;;6.93;2.30;;;;;;;;;;5066801;28;20485;-80
2023/06/06 01:17:08;;;;;;;6.03;2.60;;;;;;;;;;5068364;28;20454;-80
2023/06/06 01:19:37;;;;;;;6.23;2.20;;;;;;;;;;5064711;28;20452;-82
2023/06/06 01:22:12;;;;;;;6.07;2.90;;;;;;;;;;5065476;28;20438;-81
2023/06/06 01:24:44;;;;;;;5.87;2.90;;;;;;;;;;5046692;28;20474;-81
2023/06/06 01:27:14;;;;;;;5.43;2.20;;;;;;;;;;5066343;28;20532;-80
2023/06/06 01:29:41;;;;;;;5.20;2.30;;;;;;;;;;5070655;28;20999;-82
2023/06/06 01:32:14;;;;;;;7.60;3.17;;;;;;;;;;5070453;28;20462;-79
2023/06/06 01:34:46;;;;;;;5.30;2.87;;;;;;;;;;5070285;28;20497;-81
2023/06/06 01:37:21;;;;;;;7.43;2.83;;;;;;;;;;5068079;28;20442;-81
2023/06/06 01:39:49;;;;;;;6.13;2.30;;;;;;;;;;5068376;28;20449;-79
2023/06/06 01:42:17;;;;;;;5.90;2.83;;;;;;;;;;5068516;28;20481;-79
2023/06/06 01:47:22;;;;;;;4.47;2.67;;;;;;;;;;5094706;22;20485;-72
2023/06/06 01:49:51;;;;;;;5.93;3.13;;;;;;;;;;5061156;28;20446;-71
2023/06/06 01:52:21;;;;;;;5.87;2.73;;;;;;;;;;5059666;28;20445;-71
2023/06/06 01:54:50;;;;;;;4.83;2.50;;;;;;;;;;5059107;28;20504;-71
2023/06/06 01:57:18;;;;;;;5.47;3.37;;;;;;;;;;5056883;28;20847;-71
2023/06/06 01:59:45;;;;;;;3.97;2.87;;;;;;;;;;5058505;28;20441;-72
2023/06/06 02:02:14;;;;;;;3.67;2.57;;;;;;;;;;5064353;28;20523;-71
2023/06/06 02:04:42;;;;;;;3.30;2.10;;;;;;;;;;5064169;28;20545;-71
2023/06/06 02:07:11;;;;;;;5.53;3.57;;;;;;;;;;5058112;28;20498;-71
2023/06/06 02:09:40;;;;;;;7.33;2.80;;;;;;;;;;5059533;28;20477;-71
2023/06/06 02:12:10;;;;;;;4.80;3.73;;;;;;;;;;5058793;28;20465;-71
2023/06/06 02:14:39;;;;;;;4.50;3.53;;;;;;;;;;5058276;28;20635;-71
2023/06/06 02:17:07;;;;;;;4.03;2.90;;;;;;;;;;5057853;28;20462;-71
2023/06/06 02:19:35;;;;;;;5.80;3.67;;;;;;;;;;5057073;28;20470;-71
2023/06/06 02:22:03;;;;;;;6.23;3.20;;;;;;;;;;5057975;28;20566;-71
2023/06/06 02:24:33;;;;;;;7.40;3.20;;;;;;;;;;5056928;28;20490;-70
2023/06/06 02:27:09;;;;;;;6.43;3.30;;;;;;;;;;5057244;28;20462;-70
2023/06/06 02:29:37;;;;;;;6.23;3.80;;;;;;;;;;5056241;28;20865;-71
2023/06/06 02:32:08;;;;;;;7.30;3.57;;;;;;;;;;5059497;28;20446;-70
2023/06/06 02:34:38;;;;;;;6.27;3.40;;;;;;;;;;5059064;28;20497;-72
2023/06/06 02:37:06;;;;;;;5.37;3.60;;;;;;;;;;5057727;28;20561;-72
2023/06/06 02:39:34;;;;;;;5.30;3.83;;;;;;;;;;5057574;28;20737;-72
2023/06/06 02:42:03;;;;;;;5.60;3.53;;;;;;;;;;5074667;22;21723;-81
2023/06/06 02:47:34;;;;;;;7.37;3.60;;;;;;;;;;5041403;28;20702;-71
2023/06/06 02:50:07;;;;;;;6.87;3.20;;;;;;;;;;5045638;28;20482;-72
2023/06/06 02:52:35;;;;;;;8.43;3.87;;;;;;;;;;5057875;28;20508;-72
2023/06/06 02:55:09;;;;;;;5.60;3.00;;;;;;;;;;5056485;28;20481;-71
2023/06/06 02:57:46;;;;;;;6.37;3.17;;;;;;;;;;5056521;28;20592;-73
2023/06/06 03:00:14;;;;;;;6.13;3.90;;;;;;;;;;5056688;28;20464;-72
2023/06/06 03:02:43;;;;;;;5.60;3.57;;;;;;;;;;5052868;28;20468;-71
2023/06/06 03:05:25;;;;;;;5.40;3.07;;;;;;;;;;5078321;28;20467;-72
2023/06/06 03:07:54;;;;;;;5.53;3.30;;;;;;;;;;5076154;28;20467;-71
2023/06/06 03:10:22;;;;;;;6.00;3.10;;;;;;;;;;5076144;28;20540;-71
2023/06/06 03:12:51;;;;;;;7.30;3.43;;;;;;;;;;5077850;28;20465;-71
2023/06/06 03:15:19;;;;;;;4.50;3.50;;;;;;;;;;5080750;28;20500;-71
2023/06/06 03:17:48;;;;;;;9.13;3.50;;;;;;;;;;5080482;28;20747;-71
2023/06/06 03:20:20;;;;;;;4.60;3.20;;;;;;;;;;5081067;28;20575;-72
2023/06/06 03:22:48;;;;;;;11.13;3.93;;;;;;;;;;5078928;28;20456;-71
2023/06/06 03:25:16;;;;;;;12.80;3.83;;;;;;;;;;5080751;28;20460;-71
2023/06/06 03:27:43;;;;;;;6.93;3.67;;;;;;;;;;5080322;28;20868;-70
2023/06/06 03:30:15;;;;;;;4.47;3.30;;;;;;;;;;5081718;28;20463;-71
2023/06/06 03:32:42;;;;;;;7.60;4.40;;;;;;;;;;5079342;28;20492;-71
2023/06/06 03:35:14;;;;;;;6.13;3.40;;;;;;;;;;5078656;28;20612;-71
2023/06/06 03:37:42;;;;;;;4.93;3.30;;;;;;;;;;5076492;28;20484;-71
2023/06/06 03:40:14;;;;;;;5.50;3.27;;;;;;;;;;5075064;28;20460;-72
2023/06/06 03:42:42;;;;;;;4.87;3.37;;;;;;;;;;5076532;28;20457;-72
2023/06/06 03:45:16;;;;;;;6.90;3.67;;;;;;;;;;5080971;28;20487;-71
2023/06/06 03:47:45;;;;;;;5.20;3.60;;;;;;;;;;5075955;28;20480;-71
2023/06/06 03:50:17;;;;;;;5.10;3.30;;;;;;;;;;5061118;28;20461;-71
2023/06/06 03:52:45;;;;;;;9.60;3.67;;;;;;;;;;5079833;28;20461;-72
2023/06/06 03:55:13;;;;;;;7.20;3.93;;;;;;;;;;5078953;28;20515;-72
2023/06/06 03:57:43;;;;;;;5.50;3.87;;;;;;;;;;5076591;28;20472;-71
2023/06/06 04:00:13;;;;;;;5.00;3.30;;;;;;;;;;5074755;28;20453;-70
2023/06/06 04:02:42;;;;;;;7.40;3.70;;;;;;;;;;5074563;28;20460;-71
2023/06/06 04:05:12;;;;;;;8.57;3.97;;;;;;;;;;5076493;28;20457;-72
2023/06/06 04:07:40;;;;;;;5.30;3.67;;;;;;;;;;5076750;28;20484;-72
2023/06/06 04:10:11;;;;;;;8.23;3.63;;;;;;;;;;5076066;28;20884;-73
2023/06/06 04:12:39;;;;;;;4.93;3.40;;;;;;;;;;5076518;28;20456;-72
2023/06/06 04:15:13;;;;;;;6.07;3.40;;;;;;;;;;5072407;28;20485;-72
2023/06/06 04:17:41;;;;;;;5.53;3.13;;;;;;;;;;5066725;28;20946;-72
2023/06/06 04:20:10;;;;;;;6.27;3.17;;;;;;;;;;5064375;28;20477;-73
2023/06/06 04:22:41;;;;;;;9.37;3.77;;;;;;;;;;5071311;28;20457;-71
2023/06/06 04:25:09;;;;;;;6.07;3.70;;;;;;;;;;5058141;28;20555;-72
2023/06/06 04:27:40;;;;;;;8.40;3.73;;;;;;;;;;5073639;28;20604;-72
2023/06/06 04:30:13;;;;;;;6.80;3.10;;;;;;;;;;5074797;28;20449;-73
2023/06/06 04:32:41;;;;;;;8.27;4.07;;;;;;;;;;5073842;28;20905;-72
2023/06/06 04:35:11;;;;;;;10.30;3.50;;;;;;;;;;5074307;28;20489;-71
2023/06/06 04:37:41;;;;;;;6.10;3.70;;;;;;;;;;5073621;28;20506;-71
2023/06/06 04:40:11;;;;;;;33.87;9.90;;;;;;;;;;5074497;28;20647;-71
2023/06/06 04:42:42;;;;;;;5.40;4.17;;;;;;;;;;5056741;28;20449;-72
2023/06/06 04:45:13;;;;;;;7.37;4.43;;;;;;;;;;5072820;28;20471;-72
2023/06/06 04:47:44;;;;;;;6.00;3.97;;;;;;;;;;5073008;28;20459;-72
2023/06/06 04:50:12;;;;;;;6.80;3.20;;;;;;;;;;5073381;28;20449;-72
2023/06/06 04:52:43;;;;;;;5.83;3.70;;;;;;;;;;5074269;28;20464;-72
2023/06/06 04:55:10;;;;;;;7.30;2.90;;;;;;;;;;5076875;28;20510;-72
2023/06/06 04:57:41;;;;;;;9.63;3.37;;;;;;;;;;5074512;28;20953;-71
2023/06/06 05:00:12;;;;;;;7.33;3.03;;;;;;;;;;5076175;28;20571;-72
2023/06/06 05:02:40;;;;;;;5.03;3.10;;;;;;;;;;5074891;28;20542;-71
2023/06/06 05:05:11;;;;;;;7.40;4.30;;;;;;;;;;5075692;28;20780;-71
2023/06/06 05:07:39;;;;;;;8.77;3.00;;;;;;;;;;5075088;28;20896;-71
2023/06/06 05:10:09;;;;;;;5.93;3.27;;;;;;;;;;5074956;28;20449;-72
2023/06/06 05:12:47;;;;;;;11.57;3.60;;;;;;;;;;5073116;28;20484;-73
2023/06/06 05:15:44;;;;;;;8.80;4.20;;;;;;;;;;5074565;28;20528;-72
2023/06/06 05:21:11;;;;;;;7.60;3.50;;;;;;;;;;5069235;28;20758;-71
2023/06/06 05:23:39;;;;;;;8.80;3.97;;;;;;;;;;5070312;28;20575;-71
2023/06/06 05:26:10;;;;;;;5.50;3.57;;;;;;;;;;5071417;28;20448;-71
2023/06/06 05:28:40;;;;;;;10.13;4.60;;;;;;;;;;5070986;28;20563;-72
2023/06/06 05:31:09;;;;;;;13.53;4.00;;;;;;;;;;5070776;28;20793;-71
2023/06/06 05:33:40;;;;;;;7.23;3.53;;;;;;;;;;5069891;28;20448;-71
2023/06/06 05:36:09;;;;;;;8.37;3.80;;;;;;;;;;5063101;28;20556;-71
2023/06/06 05:38:38;;;;;;;5.70;3.30;;;;;;;;;;5058325;28;20445;-71
2023/06/06 05:41:11;;;;;;;9.07;3.63;;;;;;;;;;5070385;28;20449;-71
2023/06/06 05:43:39;;;;;;;6.30;3.50;;;;;;;;;;5069307;28;20496;-71
2023/06/06 05:46:06;;;;;;;8.30;3.67;;;;;;;;;;5067812;28;20542;-71
2023/06/06 05:48:43;;;;;;;6.17;3.30;;;;;;;;;;5068853;28;20946;-71
2023/06/06 05:51:11;;;;;;;12.10;4.30;;;;;;;;;;5052793;28;20453;-70
2023/06/06 05:53:44;;;;;;;5.93;3.20;;;;;;;;;;5048518;28;20458;-72
2023/06/06 05:56:17;;;;;;;5.60;3.53;;;;;;;;;;5051152;28;20493;-72
2023/06/06 05:58:50;;;;;;;9.37;4.10;;;;;;;;;;5051506;28;20480;-72
2023/06/06 06:01:20;;;;;;;9.17;4.03;;;;;;;;;;5048182;28;20730;-72
2023/06/06 06:03:54;;;;;;;7.70;4.00;;;;;;;;;;5049668;28;20456;-72
2023/06/06 06:06:32;;;;;;;6.93;3.97;;;;;;;;;;5051447;28;20832;-72
2023/06/06 06:09:05;;;;;;;5.53;3.03;;;;;;;;;;5050579;28;20457;-72
2023/06/06 06:11:35;;;;;;;6.47;3.00;;;;;;;;;;5049810;28;20466;-73
2023/06/06 06:14:02;;;;;;;7.47;3.00;;;;;;;;;;5050015;28;20450;-72
2023/06/06 06:16:41;;;;;;;5.70;3.00;;;;;;;;;;5058498;28;20481;-73
2023/06/06 06:19:28;;;;;;;4.00;2.53;;;;;;;;;;5050086;28;20568;-72
2023/06/06 06:21:57;;;;;;;5.40;2.80;;;;;;;;;;5062896;28;20904;-72
2023/06/06 06:24:25;;;;;;;6.70;3.30;;;;;;;;;;5051409;28;20809;-73
2023/06/06 06:27:08;;;;;;;6.37;2.90;;;;;;;;;;5051914;28;20489;-73
2023/06/06 06:29:40;;;;;;;4.07;2.80;;;;;;;;;;5062960;28;20471;-73
2023/06/06 06:32:16;;;;;;;8.30;3.07;;;;;;;;;;5072561;28;20456;-73
2023/06/06 06:37:43;;;;;;;5.03;3.20;;;;;;;;;;5071230;28;20557;-72
2023/06/06 06:40:13;;;;;;;5.00;2.37;;;;;;;;;;5059014;28;20441;-73
2023/06/06 06:42:44;;;;;;;5.60;2.70;;;;;;;;;;5069003;28;20456;-72
2023/06/06 06:45:13;;;;;;;10.73;2.77;;;;;;;;;;5079888;28;20542;-73
2023/06/06 06:47:44;;;;;;;4.90;3.17;;;;;;;;;;5079064;28;20468;-73
2023/06/06 06:50:21;;;;;;;3.80;2.50;;;;;;;;;;5074375;28;20440;-73
2023/06/06 06:52:53;;;;;;;6.33;3.13;;;;;;;;;;5066605;28;20444;-71
2023/06/06 06:55:26;;;;;;;4.40;2.33;;;;;;;;;;5068188;28;20820;-73
2023/06/06 06:58:02;;;;;;;6.60;2.30;;;;;;;;;;5065247;28;20519;-73
2023/06/06 07:00:50;;;;;;;5.77;2.30;;;;;;;;;;5075262;28;21098;-73
2023/06/06 07:03:36;;;;;;;4.77;2.73;;;;;;;;;;5066983;28;20453;-73
2023/06/06 07:06:07;;;;;;;4.90;3.03;;;;;;;;;;5072527;28;20579;-73
2023/06/06 07:08:44;;;;;;;3.30;1.53;;;;;;;;;;5060826;28;20947;-74
2023/06/06 07:14:09;;;;;;;5.57;1.90;;;;;;;;;;5055092;28;20537;-72
2023/06/06 07:17:04;;;;;;;5.23;2.50;;;;;;;;;;5058231;28;20551;-75
2023/06/06 07:19:37;;;;;;;3.30;2.03;;;;;;;;;;5056342;28;20467;-72
2023/06/06 07:22:10;;;;;;;4.40;2.17;;;;;;;;;;5069834;28;20449;-73
2023/06/06 07:24:39;;;;;;;6.20;2.33;;;;;;;;;;5063977;28;20454;-72
2023/06/06 07:27:08;;;;;;;5.50;2.17;;;;;;;;;;5065676;28;20457;-74
2023/06/06 07:29:38;;;;;;;3.20;2.00;;;;;;;;;;5074273;28;20461;-72
2023/06/06 07:32:11;;;;;;;4.63;3.00;;;;;;;;;;5072439;28;20453;-73
2023/06/06 07:37:44;;;;;;;6.63;2.17;;;;;;;;;;5065559;28;20464;-74
2023/06/06 07:40:30;;;;;;;7.97;4.63;;;;;;;;;;5080073;28;20877;-74
2023/06/06 07:43:06;;;;;;;8.20;4.10;;;;;;;;;;5074970;28;21203;-73
2023/06/06 07:45:53;;;;;;;4.00;2.37;;;;;;;;;;5072611;28;20484;-73
2023/06/06 07:51:52;;;;;;;4.13;1.80;;;;;;;;;;5063823;28;20420;-72
2023/06/06 07:54:34;;;;;;;4.33;2.00;;;;;;;;;;5075617;28;20797;-74
2023/06/06 08:12:10;;;;;;;4.27;1.80;;;;;;;;;;5068445;28;20214;-73
2023/06/06 08:17:37;;;;;;;3.30;2.17;;;;;;;;;;5083447;28;20429;-72
2023/06/06 08:20:09;;;;;;;5.07;2.50;;;;;;;;;;5074114;28;20460;-74
2023/06/06 08:28:32;;;;;;;5.10;2.30;;;;;;;;;;5053635;28;20529;-73
2023/06/06 08:37:38;;;;;;;5.47;2.67;;;;;;;;;;5077272;28;20529;-73
2023/06/06 08:43:41;;;;;;;4.80;2.17;;;;;;;;;;5069472;28;20453;-73
2023/06/06 08:46:17;;;;;;;4.30;2.20;;;;;;;;;;5075154;28;20452;-73
2023/06/06 08:48:50;;;;;;;7.30;2.53;;;;;;;;;;5071916;28;20448;-73
2023/06/06 08:54:03;;;;;;;4.40;2.30;;;;;;;;;;5073279;28;20441;-75
2023/06/06 08:56:41;;;;;;;4.97;1.97;;;;;;;;;;5074036;28;20496;-71
2023/06/06 09:02:28;;;;;;;4.73;2.60;;;;;;;;;;5055641;28;21146;-73
2023/06/06 09:05:17;;;;;;;7.00;2.63;;;;;;;;;;5058706;28;20458;-73
2023/06/06 09:07:52;;;;;;;5.53;2.67;;;;;;;;;;5054889;28;20446;-72
2023/06/06 09:23:24;;;;;;;7.43;2.60;;;;;;;;;;5131825;27;20283;-73
2023/06/06 09:25:55;;;;;;;4.63;3.00;;;;;;;;;;5135853;27;20497;-73
2023/06/06 09:29:13;;;;;;;;;;;;;;;;;;;;;
2023/06/06 09:37:52;;;;;;;5.00;2.60;;;;;;;;;;5061954;28;21081;-73
2023/06/06 09:40:31;;;;;;;4.17;2.33;;;;;;;;;;5070870;28;20619;-72
2023/06/06 09:43:16;;;;;;;6.13;3.57;;;;;;;;;;5135220;28;20462;-74
2023/06/06 09:46:04;;;;;;;4.90;2.30;;;;;;;;;;5131902;28;20643;-73
2023/06/06 09:48:35;;;;;;;8.77;2.20;;;;;;;;;;5132274;28;20487;-73
2023/06/06 09:51:13;;;;;;;5.43;3.00;;;;;;;;;;5129904;28;20493;-73
2023/06/06 09:54:05;;;;;;;4.00;2.33;;;;;;;;;;5131096;28;20561;-73
2023/06/06 09:56:53;;;;;;;4.50;2.23;;;;;;;;;;5118167;28;20901;-73
2023/06/06 10:02:31;;;;;;;4.27;2.57;;;;;;;;;;5128548;28;20538;-73
2023/06/06 10:05:35;;;;;;;3.00;2.03;;;;;;;;;;5110938;28;20454;-73
2023/06/06 10:08:09;;;;;;;3.70;2.17;;;;;;;;;;5131309;28;20490;-72
2023/06/06 10:10:38;;;;;;;3.30;2.07;;;;;;;;;;5125691;28;20462;-73
2023/06/06 10:16:00;;;;;;;4.47;2.20;;;;;;;;;;5119252;28;20598;-73
2023/06/06 10:18:46;;;;;;;4.53;2.87;;;;;;;;;;5131890;28;20585;-73
2023/06/06 10:21:18;;;;;;;4.60;1.97;;;;;;;;;;5109951;28;20498;-73
2023/06/06 10:23:59;;;;;;;3.30;2.10;;;;;;;;;;5113778;28;20529;-72
2023/06/06 10:26:32;;;;;;;3.47;2.20;;;;;;;;;;5110473;28;20442;-73
2023/06/06 10:29:19;;;;;;;4.47;2.30;;;;;;;;;;5129782;28;20455;-73
2023/06/06 10:32:03;;;;;;;5.43;1.97;;;;;;;;;;5128747;28;20454;-73
2023/06/06 10:34:39;;;;;;;4.97;2.23;;;;;;;;;;5111176;28;20467;-74
2023/06/06 10:37:38;;;;;;;3.90;2.10;;;;;;;;;;5107872;28;20454;-73
2023/06/06 10:40:24;;;;;;;5.70;2.47;;;;;;;;;;5101979;28;20512;-75
2023/06/06 10:43:00;;;;;;;9.07;2.80;;;;;;;;;;5103985;28;20487;-73
2023/06/06 10:45:57;;;;;;;4.20;2.20;;;;;;;;;;5096346;28;20863;-74
2023/06/06 10:48:52;;;;;;;3.13;2.20;;;;;;;;;;5096540;28;20641;-73
2023/06/06 10:54:37;;;;;;;5.90;2.50;;;;;;;;;;5024298;28;20451;-74
2023/06/06 11:00:41;;;;;;;6.40;3.47;;;;;;;;;;5092023;28;20980;-74
2023/06/06 11:09:50;;;;;;;5.50;2.20;;;;;;;;;;5027146;28;20536;-74
2023/06/06 11:12:25;;;;;;;4.87;2.50;;;;;;;;;;5097919;28;20462;-75
2023/06/06 11:15:27;;;;;;;5.50;3.50;;;;;;;;;;5095014;28;20454;-73
2023/06/06 11:18:03;;;;;;;4.57;2.10;;;;;;;;;;5099285;28;20459;-75
2023/06/06 11:23:43;;;;;;;6.87;3.10;;;;;;;;;;5107001;28;20446;-75
2023/06/06 11:26:22;;;;;;;4.90;3.00;;;;;;;;;;5111235;28;20518;-73
2023/06/06 11:35:01;;;;;;;3.50;1.60;;;;;;;;;;5095340;28;20547;-73
2023/06/06 11:38:12;;;;;;;4.53;3.30;;;;;;;;;;5097617;28;20448;-74
2023/06/06 11:40:48;;;;;;;8.83;5.60;;;;;;;;;;5049048;28;20504;-73
2023/06/06 11:43:21;;;;;;;3.73;1.90;;;;;;;;;;5076090;28;20555;-72
2023/06/06 11:48:59;;;;;;;5.10;2.23;;;;;;;;;;5093501;28;20448;-73
2023/06/06 11:51:27;;;;;;;3.70;2.00;;;;;;;;;;5093740;28;20440;-73
2023/06/06 11:53:57;;;;;;;3.70;1.87;;;;;;;;;;5088798;28;20491;-73
2023/06/06 11:56:28;;;;;;;2.90;1.80;;;;;;;;;;5076042;28;20459;-73
2023/06/06 11:59:21;;;;;;;3.93;2.00;;;;;;;;;;5074489;28;20457;-72
2023/06/06 12:01:54;;;;;;;4.20;2.00;;;;;;;;;;5080905;28;20507;-74
2023/06/06 12:04:29;;;;;;;4.70;2.77;;;;;;;;;;5092764;28;20462;-73
2023/06/06 12:07:38;;;;;;;4.20;1.90;;;;;;;;;;5096074;28;20797;-74
2023/06/06 12:10:44;;;;;;;3.67;2.30;;;;;;;;;;5094740;28;20436;-73
2023/06/06 12:30:57;;;;;;;4.70;2.20;;;;;;;;;;5019159;27;2123067;-75
2023/06/06 12:36:56;;;;;;;4.33;1.83;;;;;;;;;;5022235;28;20573;-75
2023/06/06 12:40:08;;;;;;;;;;;;;;;;;;;;;
2023/06/06 12:43:36;;;;;;;5.90;2.20;;;;;;;;;;5031265;28;20458;-76
2023/06/06 12:53:26;;;;;;;;;;;;;;;;;;;;;
2023/06/06 13:13:23;;;;;;;6.53;2.67;;;;;;;;;;5091164;28;20478;-74
2023/06/06 13:16:17;;;;;;;4.10;2.13;;;;;;;;;;5080014;28;20523;-73
2023/06/06 13:19:25;;;;;;;3.67;1.90;;;;;;;;;;5088604;28;20740;-73
2023/06/06 13:25:12;;;;;;;4.43;2.10;;;;;;;;;;5085789;28;20478;-75
2023/06/06 13:27:48;;;;;;;3.60;2.40;;;;;;;;;;5091010;28;20456;-76
2023/06/06 13:30:46;;;;;;;4.80;2.30;;;;;;;;;;5070624;28;20497;-74
2023/06/06 13:48:06;;;;;;;5.93;2.23;;;;;;;;;;5023105;28;20427;-74
2023/06/06 13:50:55;;;;;;;4.10;2.40;;;;;;;;;;5058754;28;20758;-76
2023/06/06 13:56:47;;;;;;;5.57;3.20;;;;;;;;;;5073698;28;20631;-74
2023/06/06 14:05:30;;;;;;;3.30;2.00;;;;;;;;;;5036004;28;20210;-75
2023/06/06 14:13:50;;;;;;;3.57;2.27;;;;;;;;;;5060197;28;20219;-73
2023/06/06 14:16:52;;;;;;;3.97;2.17;;;;;;;;;;5060001;28;20567;-73
2023/06/06 14:19:50;;;;;;;4.93;3.53;;;;;;;;;;5048993;28;20584;-75
2023/06/06 14:25:35;;;;;;;4.43;2.33;;;;;;;;;;5071197;28;20481;-74
2023/06/06 14:28:15;;;;;;;3.80;2.40;;;;;;;;;;5069792;28;20556;-74
2023/06/06 14:30:53;;;;;;;3.03;2.03;;;;;;;;;;5070480;28;20772;-73
2023/06/06 14:33:38;;;;;;;4.53;2.53;;;;;;;;;;5081552;28;20471;-75
2023/06/06 14:42:31;;;;;;;4.17;2.20;;;;;;;;;;5075151;28;20453;-75
2023/06/06 14:45:09;;;;;;;3.93;2.17;;;;;;;;;;5079720;28;20472;-75
2023/06/06 14:50:42;;;;;;;4.00;2.60;;;;;;;;;;5074692;28;20472;-74
2023/06/06 14:53:58;;;;;;;4.47;2.47;;;;;;;;;;5062596;28;20449;-75
2023/06/06 14:57:10;;;;;;;3.57;2.40;;;;;;;;;;5061292;28;21036;-72
2023/06/06 14:59:48;;;;;;;5.63;2.50;;;;;;;;;;5076465;28;20817;-72
2023/06/06 15:05:36;;;;;;;4.40;2.00;;;;;;;;;;4957196;28;20576;-72
2023/06/06 15:08:33;;;;;;;3.23;2.17;;;;;;;;;;4994511;28;20596;-73
2023/06/06 15:25:37;;;;;;;4.17;3.17;;;;;;;;;;5063651;28;20558;-73
2023/06/06 15:33:07;;;;;;;3.70;2.53;;;;;;;;;;5064858;28;20306;-73
2023/06/06 15:39:23;;;;;;;11.30;8.60;;;;;;;;;;5039960;28;20626;-72
2023/06/06 15:51:00;;;;;;;5.23;3.50;;;;;;;;;;5069994;28;20534;-72
2023/06/06 16:00:03;;;;;;;6.20;2.43;;;;;;;;;;5068916;28;20480;-71
2023/06/06 16:02:37;;;;;;;4.67;2.67;;;;;;;;;;5052678;28;20464;-74
2023/06/06 16:05:15;;;;;;;4.30;2.17;;;;;;;;;;5075657;28;20476;-73
2023/06/06 16:07:43;;;;;;;7.03;2.80;;;;;;;;;;5072487;28;21162;-73
2023/06/06 16:10:23;;;;;;;3.97;2.70;;;;;;;;;;5073741;28;20525;-74
2023/06/06 16:13:15;;;;;;;3.77;2.53;;;;;;;;;;5070586;28;20457;-73
2023/06/06 16:16:11;;;;;;;3.80;2.20;;;;;;;;;;5054125;28;20466;-74
2023/06/06 16:18:57;;;;;;;4.10;2.27;;;;;;;;;;5066391;28;21311;-74
2023/06/06 16:27:41;;;;;;;5.27;2.60;;;;;;;;;;5071638;28;20472;-76
2023/06/06 16:30:25;;;;;;;4.27;2.63;;;;;;;;;;5071748;28;20445;-75
2023/06/06 16:33:10;;;;;;;4.47;2.43;;;;;;;;;;5069819;28;20598;-76
2023/06/06 16:35:49;;;;;;;5.93;2.20;;;;;;;;;;5070854;28;20883;-74
2023/06/06 16:38:22;;;;;;;7.23;2.60;;;;;;;;;;5070963;28;20460;-73
2023/06/06 16:41:03;;;;;;;3.70;3.07;;;;;;;;;;5058317;28;20457;-74
2023/06/06 16:49:37;;;;;;;4.50;3.43;;;;;;;;;;5070376;28;20480;-74
2023/06/06 16:52:09;;;;;;;4.30;2.37;;;;;;;;;;5073493;28;20457;-74
2023/06/06 16:54:46;;;;;;;4.57;2.60;;;;;;;;;;5078312;28;20889;-74
2023/06/06 16:57:26;;;;;;;4.40;2.70;;;;;;;;;;5073531;28;20464;-74
2023/06/06 17:00:04;;;;;;;4.17;2.27;;;;;;;;;;5067458;28;20783;-74
2023/06/06 17:02:34;;;;;;;5.97;2.40;;;;;;;;;;5073421;28;20502;-73
2023/06/06 17:05:21;;;;;;;3.43;2.57;;;;;;;;;;5070914;28;21120;-74
2023/06/06 17:08:11;;;;;;;5.83;4.30;;;;;;;;;;5065391;28;20448;-74
2023/06/06 17:10:43;;;;;;;3.77;2.50;;;;;;;;;;5075236;28;20653;-73
2023/06/06 17:13:22;;;;;;;4.67;2.30;;;;;;;;;;5073576;28;20543;-73
2023/06/06 17:15:52;;;;;;;4.40;2.80;;;;;;;;;;5074818;28;20826;-73
2023/06/06 17:18:26;;;;;;;4.90;2.90;;;;;;;;;;5074056;28;20940;-72
2023/06/06 17:20:59;;;;;;;6.90;2.77;;;;;;;;;;5075386;28;20465;-74
2023/06/06 17:23:34;;;;;;;4.37;2.37;;;;;;;;;;5073649;28;20464;-76
2023/06/06 17:26:11;;;;;;;6.03;2.60;;;;;;;;;;5076025;28;20532;-74
2023/06/06 17:28:40;;;;;;;3.57;2.43;;;;;;;;;;5071093;28;20680;-73
2023/06/06 17:31:28;;;;;;;4.37;2.70;;;;;;;;;;5071971;28;20535;-73
2023/06/06 17:34:01;;;;;;;5.40;2.73;;;;;;;;;;5071023;28;20489;-74
2023/06/06 17:36:32;;;;;;;4.07;2.23;;;;;;;;;;5076190;28;20459;-74
2023/06/06 17:39:33;;;;;;;6.67;4.27;;;;;;;;;;5064582;28;20481;-73
2023/06/06 17:42:17;;;;;;;3.80;2.40;;;;;;;;;;5056667;28;20438;-74
2023/06/06 17:47:45;;;;;;;3.50;2.27;;;;;;;;;;5046457;28;20840;-72
2023/06/06 17:50:41;;;;;;;7.37;3.53;;;;;;;;;;5072600;28;20442;-73
2023/06/06 17:53:35;;;;;;;5.53;3.00;;;;;;;;;;5072729;28;20453;-75
2023/06/06 17:56:15;;;;;;;4.30;2.50;;;;;;;;;;5074779;28;20487;-72
2023/06/06 18:01:58;;;;;;;4.10;2.60;;;;;;;;;;5073644;28;20579;-74
2023/06/06 18:04:30;;;;;;;4.00;2.73;;;;;;;;;;5076821;28;20467;-73
2023/06/06 18:10:03;;;;;;;4.40;2.77;;;;;;;;;;5068724;28;20418;-73
2023/06/06 18:15:49;;;;;;;6.80;2.60;;;;;;;;;;5071467;28;20444;-73
2023/06/06 18:18:52;;;;;;;;;;;;;;;;;;;;;
2023/06/06 18:21:30;;;;;;;3.80;3.00;;;;;;;;;;5073783;28;20516;-74
2023/06/06 18:23:58;;;;;;;4.80;2.70;;;;;;;;;;5069050;28;20469;-73
2023/06/06 18:29:24;;;;;;;4.67;2.80;;;;;;;;;;5065683;28;20492;-73
2023/06/06 18:40:55;;;;;;;5.90;2.53;;;;;;;;;;4993434;28;20511;-72
2023/06/06 18:43:48;;;;;;;6.70;2.77;;;;;;;;;;5058532;28;20477;-72
2023/06/06 18:46:18;;;;;;;4.83;2.80;;;;;;;;;;5057512;28;20533;-73
2023/06/06 18:48:54;;;;;;;10.37;3.47;;;;;;;;;;5075844;28;20456;-73
2023/06/06 18:51:25;;;;;;;4.70;2.87;;;;;;;;;;5077083;28;20476;-73
2023/06/06 18:53:54;;;;;;;3.20;2.30;;;;;;;;;;5077624;28;20467;-72
2023/06/06 18:56:30;;;;;;;6.33;3.17;;;;;;;;;;5080984;28;20461;-73
2023/06/06 18:59:12;;;;;;;4.67;3.13;;;;;;;;;;5076997;28;20496;-72
2023/06/06 19:01:43;;;;;;;5.10;3.60;;;;;;;;;;5075579;28;20461;-72
2023/06/06 19:04:13;;;;;;;5.93;3.27;;;;;;;;;;5076720;28;20468;-71
2023/06/06 19:06:43;;;;;;;5.53;3.30;;;;;;;;;;5079437;28;20437;-71
2023/06/06 19:09:13;;;;;;;5.47;3.23;;;;;;;;;;5078032;28;20526;-72
2023/06/06 19:11:49;;;;;;;7.20;3.30;;;;;;;;;;5074267;28;20507;-72
2023/06/06 19:14:17;;;;;;;8.13;4.10;;;;;;;;;;5076015;28;20457;-71
2023/06/06 19:16:44;;;;;;;4.40;2.90;;;;;;;;;;5074092;28;20458;-71
2023/06/06 19:19:15;;;;;;;4.57;3.80;;;;;;;;;;5071099;28;20476;-72
2023/06/06 19:21:44;;;;;;;5.13;3.20;;;;;;;;;;5077109;28;20446;-70
2023/06/06 19:24:12;;;;;;;5.23;2.60;;;;;;;;;;5078277;28;20862;-70
2023/06/06 19:26:41;;;;;;;4.07;3.10;;;;;;;;;;5076398;28;20448;-70
2023/06/06 19:29:40;;;;;;;7.47;3.00;;;;;;;;;;5080617;28;20467;-71
2023/06/06 19:32:21;;;;;;;5.93;2.97;;;;;;;;;;5078007;28;20862;-73
2023/06/06 19:35:11;;;;;;;6.03;3.47;;;;;;;;;;5079477;28;20802;-72
2023/06/06 19:44:10;;;;;;;5.17;3.07;;;;;;;;;;5068528;28;20489;-72
2023/06/06 19:47:20;;;;;;;7.70;3.10;;;;;;;;;;5081102;28;20464;-71
2023/06/06 19:50:19;;;;;;;6.37;3.60;;;;;;;;;;4997690;28;20452;-72
2023/06/06 19:53:09;;;;;;;5.30;2.80;;;;;;;;;;5072826;28;20732;-71
2023/06/06 19:55:42;;;;;;;4.83;3.50;;;;;;;;;;5076831;28;20468;-72
2023/06/06 19:58:12;;;;;;;5.97;3.47;;;;;;;;;;5075882;28;20448;-72
2023/06/06 20:00:55;;;;;;;5.73;3.13;;;;;;;;;;5075142;28;20485;-72
2023/06/06 20:03:57;;;;;;;5.47;3.47;;;;;;;;;;5077776;28;20548;-73
2023/06/06 20:06:35;;;;;;;6.40;3.67;;;;;;;;;;5074322;28;20777;-72
2023/06/06 20:09:07;;;;;;;11.37;4.30;;;;;;;;;;5072542;28;20445;-70
2023/06/06 20:11:35;;;;;;;11.47;3.90;;;;;;;;;;5074474;28;20449;-70
2023/06/06 20:14:21;;;;;;;7.40;3.40;;;;;;;;;;5072652;28;20518;-71
2023/06/06 20:16:59;;;;;;;8.50;3.70;;;;;;;;;;5060403;28;20806;-72
2023/06/06 20:19:28;;;;;;;7.10;3.27;;;;;;;;;;5076378;28;20481;-71
2023/06/06 20:22:02;;;;;;;5.37;3.70;;;;;;;;;;5079289;28;20449;-72
2023/06/06 20:24:45;;;;;;;4.73;3.40;;;;;;;;;;5074303;28;20524;-71